createdAt,value
2019-04-05T00:00:03.095Z,12.8
2019-04-05T00:05:05.631Z,12.5
2019-04-05T00:10:05.616Z,12.4
2019-04-05T00:15:14.900Z,12.3
2019-04-05T00:20:03.200Z,12.3
2019-04-05T00:25:05.738Z,12.2
2019-04-05T00:30:02.685Z,12.1
2019-04-05T00:35:02.669Z,12
2019-04-05T00:40:20.224Z,11.8
2019-04-05T00:45:02.346Z,11.8
2019-04-05T00:50:07.480Z,11.7
2019-04-05T00:55:02.449Z,11.7
2019-04-05T01:00:05.055Z,11.4
2019-04-05T01:05:07.423Z,11.3
2019-04-05T01:10:05.486Z,11.2
2019-04-05T01:15:07.972Z,11.1
2019-04-05T01:20:05.575Z,11.1
2019-04-05T01:25:02.991Z,11.1
2019-04-05T01:30:18.112Z,11
2019-04-05T01:35:23.166Z,11
2019-04-05T01:40:17.755Z,11
2019-04-05T01:45:22.821Z,10.8
2019-04-05T01:50:10.421Z,10.7
2019-04-05T01:55:05.369Z,10.8
2019-04-05T02:00:04.860Z,10.6
2019-04-05T02:05:04.877Z,10.4
2019-04-05T02:10:26.080Z,10.3
2019-04-05T02:15:13.231Z,10.1
2019-04-05T02:20:03.287Z,10.1
2019-04-05T02:25:03.215Z,10.2
2019-04-05T02:30:03.194Z,10.3
2019-04-05T02:35:38.891Z,9.9
2019-04-05T02:40:05.309Z,9.7
2019-04-05T02:45:07.748Z,9.5
2019-04-05T02:50:05.215Z,9.5
2019-04-05T02:55:15.447Z,9.4
2019-04-05T03:00:05.028Z,9.4
2019-04-05T03:05:07.446Z,9.4
2019-04-05T03:10:05.648Z,9.5
2019-04-05T03:15:02.606Z,9.4
2019-04-05T03:20:05.243Z,9.3
2019-04-05T03:25:17.944Z,9.2
2019-04-05T03:30:08.059Z,9.1
2019-04-05T03:35:10.600Z,9.1
2019-04-05T03:40:08.099Z,9.1
2019-04-05T03:45:10.435Z,8.9
2019-04-05T03:50:12.618Z,8.8
2019-04-05T03:55:05.048Z,8.9
2019-04-05T04:00:03.177Z,8.9
2019-04-05T04:05:08.186Z,9
2019-04-05T04:10:17.906Z,8.8
2019-04-05T04:15:05.213Z,8.7
2019-04-05T04:20:12.541Z,8.5
2019-04-05T04:25:05.019Z,8.5
2019-04-05T04:30:02.994Z,8.5
2019-04-05T04:35:02.945Z,8.6
2019-04-05T04:40:02.428Z,8.7
2019-04-05T04:45:11.662Z,8.6
2019-04-05T04:50:03.025Z,8.6
2019-04-05T04:55:10.526Z,8.3
2019-04-05T05:00:10.052Z,8.2
2019-04-05T05:05:02.417Z,8.1
2019-04-05T05:10:03.341Z,7.9
2019-04-05T05:15:17.989Z,7.6
2019-04-05T05:20:03.159Z,7.6
2019-04-05T05:25:13.151Z,7.7
2019-04-05T05:30:36.077Z,7.7
2019-04-05T05:35:13.140Z,7.7
2019-04-05T05:40:07.760Z,7.8
2019-04-05T05:45:02.489Z,7.8
2019-04-05T05:50:02.467Z,7.8
2019-04-05T05:55:04.959Z,7.9
2019-04-05T06:00:03.031Z,7.9
2019-04-05T06:05:03.133Z,7.9
2019-04-05T06:10:02.577Z,8
2019-04-05T06:15:04.951Z,8.1
2019-04-05T06:20:08.062Z,8.2
2019-04-05T06:25:18.236Z,8.3
2019-04-05T06:30:23.406Z,8.3
2019-04-05T06:35:15.751Z,8.4
2019-04-05T06:40:03.205Z,8.4
2019-04-05T06:45:08.284Z,8.5
2019-04-05T06:50:02.501Z,8.5
2019-04-05T06:55:22.533Z,8.6
2019-04-05T07:00:02.964Z,8.6
2019-04-05T07:05:08.034Z,8.8
2019-04-05T07:10:04.995Z,8.8
2019-04-05T07:15:18.232Z,8.8
2019-04-05T07:20:27.824Z,8.8
2019-04-05T07:25:17.655Z,8.7
2019-04-05T07:30:03.322Z,8.8
2019-04-05T07:35:08.312Z,8.8
2019-04-05T07:40:02.728Z,8.8
2019-04-05T07:45:07.722Z,8.9
2019-04-05T07:50:05.216Z,8.9
2019-04-05T07:55:15.318Z,8.9
2019-04-05T08:00:06.027Z,9
2019-04-05T08:05:08.275Z,9
2019-04-05T08:10:12.777Z,9.1
2019-04-05T08:15:07.743Z,9.3
2019-04-05T08:20:02.900Z,9.3
2019-04-05T08:25:02.723Z,9.3
2019-04-05T08:30:02.726Z,9.4
2019-04-05T08:35:02.647Z,9.4
2019-04-05T08:40:08.145Z,9.5
2019-04-05T08:45:05.518Z,9.4
2019-04-05T08:50:02.548Z,9.4
2019-04-05T08:55:05.067Z,9.5
2019-04-05T09:00:05.587Z,9.5
2019-04-05T09:05:02.948Z,9.5
2019-04-05T09:10:07.552Z,9.2
2019-04-05T09:15:05.058Z,9.1
2019-04-05T09:20:03.197Z,9.1
2019-04-05T09:25:05.599Z,9.3
2019-04-05T09:30:05.257Z,9.3
2019-04-05T09:35:05.135Z,9.2
2019-04-05T09:40:05.146Z,9.1
2019-04-05T09:45:05.575Z,9.2
2019-04-05T09:50:02.553Z,9.2
2019-04-05T09:55:07.935Z,9.4
2019-04-05T10:00:02.904Z,9.4
2019-04-05T10:05:15.575Z,9.4
2019-04-05T10:10:03.069Z,9.5
2019-04-05T10:15:08.114Z,9.5
2019-04-05T10:20:05.807Z,9.5
2019-04-05T10:25:28.374Z,9.6
2019-04-05T10:30:02.385Z,9.6
2019-04-05T10:35:05.010Z,9.6
2019-04-05T10:40:02.867Z,9.6
2019-04-05T10:45:05.284Z,9.7
2019-04-05T10:50:18.468Z,9.9
2019-04-05T10:55:10.837Z,10.1
2019-04-05T11:00:02.760Z,10.1
2019-04-05T11:05:15.411Z,10.3
2019-04-05T11:10:03.165Z,10.3
2019-04-05T11:15:05.636Z,10.6
2019-04-05T11:20:14.896Z,10.8
2019-04-05T11:25:08.304Z,10.9
2019-04-05T11:30:23.522Z,11
2019-04-05T11:35:10.832Z,11
2019-04-05T11:40:10.931Z,10.9
2019-04-05T11:45:07.410Z,11
2019-04-05T11:50:07.487Z,11
2019-04-05T11:55:04.878Z,11.3
2019-04-05T12:00:07.862Z,11.3
2019-04-05T12:05:05.296Z,11.4
2019-04-05T12:10:02.720Z,11.4
2019-04-05T12:15:25.949Z,11.7
2019-04-05T12:20:05.810Z,11.8
2019-04-05T12:25:10.826Z,11.9
2019-04-05T12:30:12.756Z,12.2
2019-04-05T12:35:02.736Z,12.2
2019-04-05T12:40:05.086Z,12.4
2019-04-05T12:45:07.800Z,13.4
2019-04-05T12:50:02.561Z,13.4
2019-04-05T12:55:02.435Z,13.6
2019-04-05T13:00:03.239Z,14
2019-04-05T13:05:02.702Z,14.6
2019-04-05T13:10:03.055Z,14.8
2019-04-05T13:15:11.599Z,14.6
2019-04-05T13:20:05.769Z,14.2
2019-04-05T13:25:02.437Z,14.2
2019-04-05T13:30:03.261Z,14.3
2019-04-05T13:35:02.764Z,15.1
2019-04-05T13:40:02.462Z,15.7
2019-04-05T13:45:05.166Z,17.6
2019-04-05T13:50:03.253Z,17.6
2019-04-05T13:55:02.678Z,19
2019-04-05T14:00:02.901Z,20.4
2019-04-05T14:05:02.457Z,20.6
2019-04-05T14:10:03.116Z,20.7
2019-04-05T14:15:02.325Z,21.1
2019-04-05T14:20:02.503Z,21.2
2019-04-05T14:25:03.330Z,21.6
2019-04-05T14:30:04.991Z,21.7
2019-04-05T14:35:02.445Z,21.7
2019-04-05T14:40:05.683Z,20.9
2019-04-05T14:45:02.332Z,20.9
2019-04-05T14:50:05.206Z,21
2019-04-05T14:55:02.801Z,21
2019-04-05T15:00:03.045Z,21.1
2019-04-05T15:05:02.420Z,21.4
2019-04-05T15:10:03.780Z,21.9
2019-04-05T15:15:02.325Z,22.1
2019-04-05T15:20:04.973Z,21.6
2019-04-05T15:25:07.700Z,21.5
2019-04-05T15:30:02.703Z,21.5
2019-04-05T15:35:02.649Z,21
2019-04-05T15:40:03.377Z,20.5
2019-04-05T15:45:05.154Z,19.2
2019-04-05T15:50:03.343Z,19.2
2019-04-05T15:55:03.693Z,18.7
2019-04-05T16:00:04.579Z,18.1
2019-04-05T16:05:03.133Z,17.4
2019-04-05T16:10:02.818Z,17.3
2019-04-05T16:15:03.002Z,16.8
2019-04-05T16:20:03.409Z,16.7
2019-04-05T16:25:03.810Z,16.4
2019-04-05T16:30:03.092Z,16
2019-04-05T16:35:08.344Z,15.9
2019-04-05T16:40:03.073Z,15.9
2019-04-05T16:45:03.294Z,15.6
2019-04-05T16:50:02.463Z,15.4
2019-04-05T16:55:04.965Z,14.8
2019-04-05T17:00:03.083Z,14.8
2019-04-05T17:05:03.269Z,14.4
2019-04-05T17:10:05.375Z,14.1
2019-04-05T17:15:02.992Z,14.1
2019-04-05T17:20:05.810Z,13.6
2019-04-05T17:25:02.417Z,13.6
2019-04-05T17:30:02.577Z,13.4
2019-04-05T17:35:02.782Z,13.2
2019-04-05T17:40:02.482Z,13.1
2019-04-05T17:45:02.594Z,13
2019-04-05T17:50:02.684Z,12.9
2019-04-05T17:55:02.813Z,12.8
2019-04-05T18:00:02.944Z,12.7
2019-04-05T18:05:02.986Z,12.6
2019-04-05T18:10:02.679Z,12.5
2019-04-05T18:15:02.885Z,12.4
2019-04-05T18:20:03.167Z,12.3
2019-04-05T18:25:03.348Z,12.2
2019-04-05T18:30:02.614Z,12.1
2019-04-05T18:35:07.710Z,12
2019-04-05T18:40:03.361Z,12
2019-04-05T18:45:02.539Z,12
2019-04-05T18:50:03.451Z,11.9
2019-04-05T18:55:02.774Z,11.9
2019-04-05T19:00:02.948Z,11.8
2019-04-05T19:05:03.111Z,11.8
2019-04-05T19:10:02.772Z,11.8
2019-04-05T19:15:02.974Z,11.6
2019-04-05T19:20:03.321Z,11.6
2019-04-05T19:25:04.794Z,11.6
2019-04-05T19:50:03.257Z,11.6
2019-04-05T19:55:02.412Z,11.6
2019-04-05T20:00:02.594Z,11.5
2019-04-05T20:05:10.400Z,11.4
2019-04-05T20:10:03.078Z,11.4
2019-04-05T20:15:03.292Z,11.3
2019-04-05T20:20:02.545Z,11.3
2019-04-05T20:25:02.726Z,11.3
2019-04-05T20:30:02.932Z,11.2
2019-04-05T20:35:08.158Z,11.1
2019-04-05T20:40:02.819Z,11.1
2019-04-05T20:45:02.977Z,11.1
2019-04-05T20:50:03.147Z,11.1
2019-04-05T20:55:02.485Z,11
2019-04-05T21:00:02.700Z,11
2019-04-05T21:05:02.848Z,10.9
2019-04-05T21:10:02.532Z,10.9
2019-04-05T21:15:05.166Z,10.8
2019-04-05T21:20:08.414Z,10.7
2019-04-05T21:25:02.411Z,10.7
2019-04-05T21:30:02.587Z,10.7
2019-04-05T21:35:02.750Z,10.6
2019-04-05T21:40:02.426Z,10.6
2019-04-05T21:45:02.583Z,10.5
2019-04-05T21:50:02.801Z,10.5
2019-04-05T21:55:05.361Z,10.4
2019-04-05T22:00:02.573Z,10.4
2019-04-05T22:05:02.539Z,10.3
2019-04-05T22:10:03.166Z,10.2
2019-04-05T22:15:02.338Z,10.2
2019-04-05T22:20:02.581Z,10.2
2019-04-05T22:25:02.755Z,10.1
2019-04-05T22:30:02.962Z,10.1
2019-04-05T22:35:03.185Z,9.9
2019-04-05T22:40:02.813Z,9.9
2019-04-05T22:45:02.968Z,9.9
2019-04-05T22:50:08.118Z,9.8
2019-04-05T22:55:10.799Z,9.7
2019-04-05T23:00:03.223Z,9.6
2019-04-05T23:05:02.447Z,9.6
2019-04-05T23:10:03.097Z,9.6
2019-04-05T23:15:03.335Z,9.6
2019-04-05T23:20:02.527Z,9.6
2019-04-05T23:25:02.718Z,9.6
2019-04-05T23:30:02.900Z,9.5
2019-04-05T23:35:05.490Z,9.4
2019-04-05T23:40:03.171Z,9.4
2019-04-05T23:45:03.296Z,9.3
2019-04-05T23:50:02.455Z,9.3
2019-04-05T23:55:02.631Z,9.3
